createdAt,value
2019-06-27T00:03:11.619Z,23.29
2019-06-27T00:06:26.564Z,23.27
2019-06-27T00:09:42.852Z,23.24
2019-06-27T00:12:57.858Z,23.16
2019-06-27T00:16:12.950Z,23.12
2019-06-27T00:19:28.873Z,23.02
2019-06-27T00:22:43.651Z,22.96
2019-06-27T00:25:59.067Z,22.92
2019-06-27T00:29:13.723Z,22.88
2019-06-27T00:32:28.478Z,22.82
2019-06-27T00:35:43.616Z,22.78
2019-06-27T00:38:58.434Z,22.73
2019-06-27T00:42:13.803Z,22.69
2019-06-27T00:45:28.758Z,22.62
2019-06-27T00:48:45.137Z,22.55
2019-06-27T00:52:00.268Z,22.45
2019-06-27T00:55:15.621Z,22.41
2019-06-27T00:58:30.693Z,22.39
2019-06-27T01:01:45.642Z,22.40
2019-06-27T01:05:00.499Z,22.42
2019-06-27T01:08:15.347Z,22.42
2019-06-27T01:11:30.653Z,22.40
2019-06-27T01:14:46.709Z,22.36
2019-06-27T01:18:01.348Z,22.29
2019-06-27T01:21:17.343Z,22.24
2019-06-27T01:24:32.781Z,22.19
2019-06-27T01:27:47.749Z,22.18
2019-06-27T01:31:02.579Z,22.12
2019-06-27T01:34:17.660Z,22.03
2019-06-27T01:37:32.983Z,21.98
2019-06-27T01:40:49.263Z,21.98
2019-06-27T01:44:06.868Z,21.94
2019-06-27T01:47:22.327Z,21.89
2019-06-27T01:50:37.584Z,21.86
2019-06-27T01:53:53.642Z,21.85
2019-06-27T01:57:09.489Z,21.78
2019-06-27T02:00:24.890Z,21.71
2019-06-27T02:03:39.749Z,21.66
2019-06-27T02:06:55.479Z,21.60
2019-06-27T02:10:10.626Z,21.57
2019-06-27T02:13:25.396Z,21.57
2019-06-27T02:16:40.383Z,21.57
2019-06-27T02:19:56.221Z,21.57
2019-06-27T02:23:11.230Z,21.56
2019-06-27T02:26:26.686Z,21.55
2019-06-27T02:29:41.646Z,21.48
2019-06-27T02:32:56.695Z,21.43
2019-06-27T02:36:12.035Z,21.40
2019-06-27T02:39:27.172Z,21.42
2019-06-27T02:42:42.435Z,21.41
2019-06-27T02:45:57.780Z,21.38
2019-06-27T02:49:12.845Z,21.35
2019-06-27T02:52:27.773Z,21.34
2019-06-27T02:55:42.636Z,21.30
2019-06-27T02:58:57.482Z,21.27
2019-06-27T03:02:12.701Z,21.23
2019-06-27T03:05:27.558Z,21.22
2019-06-27T03:08:43.225Z,21.22
2019-06-27T03:12:00.528Z,21.21
2019-06-27T03:15:16.161Z,21.16
2019-06-27T03:18:32.460Z,21.08
2019-06-27T03:21:47.351Z,21.06
2019-06-27T03:25:02.761Z,21.08
2019-06-27T03:28:17.759Z,21.06
2019-06-27T03:31:32.933Z,21.00
2019-06-27T03:34:47.639Z,21.00
2019-06-27T03:38:02.449Z,21.01
2019-06-27T03:41:17.192Z,21.00
2019-06-27T03:44:32.797Z,20.96
2019-06-27T03:47:48.480Z,20.92
2019-06-27T03:51:03.442Z,20.94
2019-06-27T03:54:18.516Z,20.94
2019-06-27T03:57:33.311Z,20.94
2019-06-27T04:00:49.843Z,20.96
2019-06-27T04:04:05.682Z,20.98
2019-06-27T04:07:20.414Z,20.95
2019-06-27T04:10:35.020Z,20.91
2019-06-27T04:13:52.031Z,20.88
2019-06-27T04:17:07.734Z,20.88
2019-06-27T04:20:22.865Z,20.92
2019-06-27T04:23:38.301Z,20.94
2019-06-27T04:26:54.787Z,20.98
2019-06-27T04:30:10.152Z,21.03
2019-06-27T04:33:26.607Z,21.04
2019-06-27T04:36:42.190Z,21.07
2019-06-27T04:39:58.446Z,21.09
2019-06-27T04:43:13.940Z,21.12
2019-06-27T04:46:28.594Z,21.14
2019-06-27T04:49:44.327Z,21.17
2019-06-27T04:53:00.695Z,21.17
2019-06-27T04:56:16.571Z,21.22
2019-06-27T04:59:51.510Z,21.26
2019-06-27T05:02:49.459Z,21.32
2019-06-27T05:06:04.266Z,21.40
2019-06-27T05:09:20.046Z,21.49
2019-06-27T05:16:49.882Z,21.63
2019-06-27T05:20:04.729Z,21.60
2019-06-27T05:23:19.589Z,21.73
2019-06-27T05:26:34.743Z,21.83
2019-06-27T05:29:49.858Z,21.93
2019-06-27T05:33:04.505Z,22.04
2019-06-27T05:36:20.999Z,22.14
2019-06-27T05:39:35.810Z,22.23
2019-06-27T05:42:51.198Z,22.37
2019-06-27T05:46:06.988Z,22.43
2019-06-27T05:49:21.766Z,22.50
2019-06-27T05:52:37.270Z,22.56
2019-06-27T05:55:52.453Z,22.54
2019-06-27T05:59:08.322Z,22.69
2019-06-27T06:02:22.900Z,22.72
2019-06-27T06:05:39.450Z,22.75
2019-06-27T06:08:54.553Z,22.85
2019-06-27T06:12:10.513Z,22.85
2019-06-27T06:15:25.971Z,22.88
2019-06-27T06:18:41.729Z,22.92
2019-06-27T06:21:56.567Z,23.04
2019-06-27T06:25:12.209Z,23.10
2019-06-27T06:28:28.310Z,23.13
2019-06-27T06:31:44.897Z,23.19
2019-06-27T06:35:01.324Z,23.28
2019-06-27T06:38:17.409Z,23.37
2019-06-27T06:41:32.354Z,23.50
2019-06-27T06:44:48.458Z,23.50
2019-06-27T06:48:04.843Z,23.59
2019-06-27T06:51:20.105Z,23.68
2019-06-27T06:54:34.844Z,23.80
2019-06-27T06:57:50.072Z,24.01
2019-06-27T07:01:05.212Z,24.13
2019-06-27T07:04:21.548Z,24.25
2019-06-27T07:07:37.192Z,24.19
2019-06-27T07:10:52.319Z,24.35
2019-06-27T07:14:07.523Z,24.49
2019-06-27T07:17:22.657Z,24.48
2019-06-27T07:20:38.836Z,24.60
2019-06-27T07:23:53.766Z,24.72
2019-06-27T07:27:08.598Z,24.80
2019-06-27T07:30:24.543Z,25.02
2019-06-27T07:33:39.659Z,25.17
2019-06-27T07:36:54.853Z,25.21
2019-06-27T07:40:11.865Z,25.16
2019-06-27T07:43:27.505Z,25.20
2019-06-27T07:46:42.442Z,25.32
2019-06-27T07:49:57.389Z,25.36
2019-06-27T07:53:12.239Z,25.38
2019-06-27T07:56:27.206Z,25.53
2019-06-27T07:59:42.437Z,25.60
2019-06-27T08:02:57.411Z,25.81
2019-06-27T08:06:12.031Z,25.90
2019-06-27T08:09:26.869Z,25.98
2019-06-27T08:12:43.046Z,25.80
2019-06-27T08:15:58.231Z,25.75
2019-06-27T08:19:14.292Z,25.86
2019-06-27T08:22:30.322Z,25.87
2019-06-27T08:25:45.513Z,25.96
2019-06-27T08:29:00.854Z,25.98
2019-06-27T08:32:16.783Z,26.20
2019-06-27T08:35:33.650Z,26.29
2019-06-27T08:38:48.643Z,26.47
2019-06-27T08:42:04.608Z,26.61
2019-06-27T08:45:19.776Z,26.63
2019-06-27T08:48:34.531Z,26.74
2019-06-27T08:51:49.638Z,26.83
2019-06-27T08:55:05.169Z,26.87
2019-06-27T08:58:20.065Z,26.93
2019-06-27T09:01:35.298Z,26.93
2019-06-27T09:04:50.078Z,27.03
2019-06-27T09:08:06.118Z,27.03
2019-06-27T09:11:21.653Z,27.33
2019-06-27T09:14:36.486Z,27.42
2019-06-27T09:17:51.399Z,27.34
2019-06-27T09:21:06.722Z,27.22
2019-06-27T09:24:22.716Z,27.34
2019-06-27T09:27:37.953Z,27.29
2019-06-27T09:30:52.987Z,27.30
2019-06-27T09:34:09.573Z,27.38
2019-06-27T09:37:25.061Z,27.43
2019-06-27T09:40:40.997Z,27.39
2019-06-27T09:43:57.093Z,27.42
2019-06-27T09:47:13.235Z,27.54
2019-06-27T09:50:28.150Z,27.68
2019-06-27T09:53:42.820Z,27.77
2019-06-27T09:56:57.462Z,28.03
2019-06-27T10:00:12.575Z,28.26
2019-06-27T10:03:27.764Z,28.32
2019-06-27T10:06:42.434Z,28.43
2019-06-27T10:09:57.340Z,28.57
2019-06-27T10:13:12.506Z,28.64
2019-06-27T10:16:27.741Z,28.68
2019-06-27T10:19:42.906Z,28.74
2019-06-27T10:22:58.247Z,28.86
2019-06-27T10:26:13.205Z,28.87
2019-06-27T10:29:27.971Z,28.97
2019-06-27T10:32:57.872Z,29.16
2019-06-27T10:35:59.673Z,29.02
2019-06-27T10:39:14.426Z,28.99
2019-06-27T10:42:31.143Z,29.11
2019-06-27T10:45:46.937Z,29.29
2019-06-27T10:49:05.228Z,29.28
2019-06-27T10:52:20.430Z,29.27
2019-06-27T10:55:36.854Z,29.08
2019-06-27T10:58:52.758Z,29.12
2019-06-27T11:02:08.048Z,29.10
2019-06-27T11:05:22.878Z,29.23
2019-06-27T11:08:37.639Z,29.42
2019-06-27T11:11:52.916Z,29.66
2019-06-27T11:15:11.407Z,29.77
2019-06-27T11:18:27.704Z,29.77
2019-06-27T11:21:43.319Z,29.79
2019-06-27T11:24:58.201Z,30.07
2019-06-27T11:28:13.008Z,30.19
2019-06-27T11:31:27.980Z,30.37
2019-06-27T11:34:43.569Z,30.44
2019-06-27T11:37:58.400Z,30.54
2019-06-27T11:41:13.292Z,30.58
2019-06-27T11:44:28.168Z,30.67
2019-06-27T11:47:43.103Z,30.82
2019-06-27T11:50:59.745Z,30.92
2019-06-27T11:54:15.271Z,30.74
2019-06-27T11:57:30.205Z,30.77
2019-06-27T12:00:45.865Z,30.97
2019-06-27T12:04:00.909Z,30.86
2019-06-27T12:07:16.302Z,30.92
2019-06-27T12:10:32.232Z,30.97
2019-06-27T12:16:49.971Z,31.21
2019-06-27T12:20:06.331Z,31.34
2019-06-27T12:23:21.359Z,31.54
2019-06-27T12:26:37.034Z,31.64
2019-06-27T12:29:52.291Z,31.57
2019-06-27T12:33:07.018Z,31.68
2019-06-27T12:36:22.068Z,31.74
2019-06-27T12:39:37.485Z,32.00
2019-06-27T12:42:52.431Z,32.18
2019-06-27T12:46:07.647Z,32.23
2019-06-27T12:49:22.502Z,32.25
2019-06-27T12:52:38.551Z,32.33
2019-06-27T12:55:53.727Z,32.27
2019-06-27T12:59:09.007Z,32.11
2019-06-27T13:02:24.028Z,31.98
2019-06-27T13:05:38.947Z,32.15
2019-06-27T13:08:54.361Z,32.34
2019-06-27T13:12:10.158Z,32.53
2019-06-27T13:15:25.190Z,32.57
2019-06-27T13:18:40.800Z,32.57
2019-06-27T13:21:55.675Z,32.55
2019-06-27T13:25:11.065Z,32.62
2019-06-27T13:28:26.212Z,32.62
2019-06-27T13:31:41.878Z,32.58
2019-06-27T13:34:56.983Z,32.60
2019-06-27T13:38:13.495Z,32.84
2019-06-27T13:41:28.782Z,32.89
2019-06-27T13:44:45.022Z,32.92
2019-06-27T13:48:00.704Z,32.88
2019-06-27T13:51:16.184Z,32.81
2019-06-27T13:54:31.549Z,32.86
2019-06-27T13:57:46.468Z,32.99
2019-06-27T14:01:01.546Z,33.10
2019-06-27T14:04:17.558Z,33.14
2019-06-27T14:07:33.563Z,33.23
2019-06-27T14:10:49.456Z,33.22
2019-06-27T14:14:04.496Z,33.02
2019-06-27T14:17:19.369Z,33.21
2019-06-27T14:20:42.947Z,33.22
2019-06-27T14:23:57.991Z,33.12
2019-06-27T14:27:13.357Z,33.13
2019-06-27T14:30:29.398Z,33.23
2019-06-27T14:33:44.781Z,33.43
2019-06-27T14:36:59.918Z,33.68
2019-06-27T14:40:15.539Z,33.71
2019-06-27T14:43:51.277Z,33.83
2019-06-27T14:47:15.211Z,33.93
2019-06-27T14:50:35.739Z,33.99
2019-06-27T14:53:57.389Z,33.91
2019-06-27T14:57:16.567Z,34.15
2019-06-27T15:00:39.005Z,34.00
2019-06-27T15:03:56.556Z,33.97
2019-06-27T15:07:22.907Z,34.03
2019-06-27T15:10:38.254Z,33.93
2019-06-27T15:13:54.738Z,33.96
2019-06-27T15:17:10.224Z,33.84
2019-06-27T15:20:26.330Z,33.63
2019-06-27T15:23:40.949Z,33.79
2019-06-27T15:26:57.076Z,33.94
2019-06-27T15:30:12.746Z,34.11
2019-06-27T15:33:27.694Z,34.10
2019-06-27T15:36:42.952Z,33.94
2019-06-27T15:39:57.857Z,33.97
2019-06-27T15:43:13.759Z,33.79
2019-06-27T15:46:28.715Z,33.84
2019-06-27T15:49:43.980Z,33.79
2019-06-27T15:53:00.256Z,33.86
2019-06-27T15:56:15.457Z,33.96
2019-06-27T15:59:30.143Z,34.09
2019-06-27T16:02:45.435Z,34.13
2019-06-27T16:06:09.076Z,34.13
2019-06-27T16:09:17.860Z,34.26
2019-06-27T16:12:33.519Z,34.05
2019-06-27T16:15:48.489Z,34.03
2019-06-27T16:19:08.041Z,33.97
2019-06-27T16:22:23.772Z,34.01
2019-06-27T16:25:39.104Z,33.87
2019-06-27T16:28:55.373Z,33.85
2019-06-27T16:32:10.940Z,34.04
2019-06-27T16:35:25.882Z,33.98
2019-06-27T16:38:41.923Z,33.74
2019-06-27T16:41:56.753Z,33.48
2019-06-27T16:45:12.510Z,33.50
2019-06-27T16:48:27.738Z,33.40
2019-06-27T16:51:44.338Z,33.46
2019-06-27T16:54:59.574Z,33.39
2019-06-27T16:58:14.618Z,33.40
2019-06-27T17:01:30.847Z,33.46
2019-06-27T17:04:45.900Z,33.43
2019-06-27T17:08:01.573Z,33.23
2019-06-27T17:11:18.819Z,33.30
2019-06-27T17:14:34.064Z,33.20
2019-06-27T17:17:50.086Z,33.18
2019-06-27T17:21:05.162Z,33.06
2019-06-27T17:24:21.425Z,32.74
2019-06-27T17:27:36.414Z,32.70
2019-06-27T17:30:51.450Z,32.70
2019-06-27T17:34:06.698Z,32.57
2019-06-27T17:37:22.228Z,32.60
2019-06-27T17:40:37.652Z,32.56
2019-06-27T17:43:52.860Z,32.39
2019-06-27T17:47:08.539Z,32.29
2019-06-27T17:50:24.763Z,32.35
2019-06-27T17:53:39.945Z,32.20
2019-06-27T17:56:54.887Z,32.17
2019-06-27T18:00:11.128Z,32.17
2019-06-27T18:03:27.238Z,32.11
2019-06-27T18:06:42.076Z,32.08
2019-06-27T18:09:57.717Z,31.95
2019-06-27T18:13:12.866Z,31.86
2019-06-27T18:16:28.148Z,31.70
2019-06-27T18:19:43.541Z,31.47
2019-06-27T18:22:58.433Z,31.28
2019-06-27T18:26:15.006Z,31.07
2019-06-27T18:29:29.863Z,30.88
2019-06-27T18:32:44.596Z,30.60
2019-06-27T18:36:03.018Z,30.14
2019-06-27T18:39:16.850Z,29.69
2019-06-27T18:42:31.561Z,29.24
2019-06-27T18:45:46.434Z,28.90
2019-06-27T18:49:01.891Z,28.57
2019-06-27T18:52:16.711Z,28.32
2019-06-27T18:55:31.719Z,28.06
2019-06-27T18:58:47.441Z,27.86
2019-06-27T19:02:03.689Z,27.67
2019-06-27T19:05:18.783Z,27.43
2019-06-27T19:08:34.838Z,27.23
2019-06-27T19:11:50.311Z,27.00
2019-06-27T19:15:06.038Z,26.59
2019-06-27T19:18:43.816Z,26.59
2019-06-27T19:22:22.909Z,26.40
2019-06-27T19:25:38.764Z,26.19
2019-06-27T19:28:55.044Z,25.94
2019-06-27T19:32:10.709Z,25.76
2019-06-27T19:35:25.382Z,25.63
2019-06-27T19:38:41.325Z,25.50
2019-06-27T19:41:57.267Z,25.36
2019-06-27T19:45:13.779Z,25.15
2019-06-27T19:48:28.731Z,24.92
2019-06-27T19:51:43.363Z,24.76
2019-06-27T19:54:59.229Z,24.59
2019-06-27T19:58:14.189Z,24.39
2019-06-27T20:01:30.731Z,24.27
2019-06-27T20:04:45.279Z,24.18
2019-06-27T20:08:17.477Z,24.06
2019-06-27T20:11:18.186Z,23.93
2019-06-27T20:14:33.134Z,23.81
2019-06-27T20:17:49.137Z,23.61
2019-06-27T20:21:04.007Z,23.41
2019-06-27T20:24:21.767Z,23.25
2019-06-27T20:27:36.473Z,23.11
2019-06-27T20:30:51.449Z,22.91
2019-06-27T20:34:06.310Z,22.78
2019-06-27T20:37:22.708Z,22.66
2019-06-27T20:40:38.075Z,22.48
2019-06-27T20:43:53.273Z,22.35
2019-06-27T20:47:08.316Z,22.18
2019-06-27T20:50:23.643Z,21.88
2019-06-27T20:53:39.073Z,21.73
2019-06-27T20:56:54.854Z,21.69
2019-06-27T21:00:10.353Z,21.54
2019-06-27T21:03:25.947Z,21.42
2019-06-27T21:06:41.105Z,21.32
2019-06-27T21:09:56.262Z,21.21
2019-06-27T21:16:50.197Z,21.01
2019-06-27T21:20:05.666Z,20.84
2019-06-27T21:23:20.880Z,20.65
2019-06-27T21:26:36.070Z,20.48
2019-06-27T21:29:50.716Z,20.31
2019-06-27T21:33:06.532Z,20.11
2019-06-27T21:36:22.060Z,19.90
2019-06-27T21:39:37.093Z,19.80
2019-06-27T21:42:52.250Z,19.79
2019-06-27T21:46:07.392Z,19.80
2019-06-27T21:49:22.140Z,19.81
2019-06-27T21:52:38.296Z,19.71
2019-06-27T21:55:53.028Z,19.53
2019-06-27T21:59:09.488Z,19.48
2019-06-27T22:02:24.272Z,19.44
2019-06-27T22:05:39.709Z,19.34
2019-06-27T22:08:57.290Z,19.21
2019-06-27T22:12:13.486Z,19.11
2019-06-27T22:15:28.459Z,19.00
2019-06-27T22:18:43.376Z,18.94
2019-06-27T22:21:59.577Z,18.88
2019-06-27T22:25:14.583Z,18.75
2019-06-27T22:28:30.983Z,18.62
2019-06-27T22:31:46.007Z,18.48
2019-06-27T22:35:00.752Z,18.38
2019-06-27T22:38:32.628Z,18.33
2019-06-27T22:42:04.659Z,18.25
2019-06-27T22:45:37.016Z,18.23
2019-06-27T22:48:51.518Z,18.17
2019-06-27T22:52:31.486Z,18.05
2019-06-27T22:55:46.793Z,18.06
2019-06-27T22:59:02.175Z,18.01
2019-06-27T23:02:18.476Z,17.95
2019-06-27T23:05:33.337Z,17.82
2019-06-27T23:08:48.290Z,17.69
2019-06-27T23:12:03.830Z,17.61
2019-06-27T23:15:19.414Z,17.55
2019-06-27T23:18:35.555Z,17.51
2019-06-27T23:21:50.195Z,17.41
2019-06-27T23:25:05.194Z,17.31
2019-06-27T23:28:20.227Z,17.25
2019-06-27T23:31:36.081Z,17.26
2019-06-27T23:34:51.752Z,17.28
2019-06-27T23:38:06.893Z,17.28
2019-06-27T23:41:21.921Z,17.24
2019-06-27T23:44:36.676Z,17.10
2019-06-27T23:47:51.614Z,16.96
2019-06-27T23:51:06.760Z,16.86
2019-06-27T23:54:24.398Z,16.80
2019-06-27T23:57:48.710Z,16.70
